Time,TemperatureF,DewpointF,PressureIn,WindDirection,WindDirectionDegrees,WindSpeedMPH,WindSpeedGustMPH,Humidity,HourlyPrecipIn,Conditions,Clouds,dailyrainin,SoftwareType,DateUTC
2013-02-10 00:01:00,15.0,2.0,30.30,NE,35,7.0,-999.0,55,-99.99,,,-99.99,,2013-02-10 05:01:00,
2013-02-10 00:11:00,15.0,2.0,30.30,NE,35,7.0,-999.0,55,-99.99,,,-99.99,,2013-02-10 05:11:00,
2013-02-10 00:22:00,15.0,1.0,30.31,NNE,27,7.0,-999.0,54,-99.99,,,-99.99,,2013-02-10 05:22:00,
2013-02-10 00:32:00,15.0,1.0,30.31,NNE,29,7.0,-999.0,54,-99.99,,,-99.99,,2013-02-10 05:32:00,
2013-02-10 00:42:00,15.0,1.0,30.31,NNE,29,7.0,-999.0,54,-99.99,,,-99.99,,2013-02-10 05:42:00,
2013-02-10 00:52:00,14.0,0.0,30.31,NE,41,5.0,-999.0,54,-99.99,,,-99.99,,2013-02-10 05:52:00,
2013-02-10 01:02:00,14.0,0.0,30.31,WNW,288,6.0,-999.0,54,-99.99,,,-99.99,,2013-02-10 06:02:00,
2013-02-10 01:11:00,14.0,0.0,30.31,WNW,288,6.0,-999.0,54,-99.99,,,-99.99,,2013-02-10 06:11:00,
2013-02-10 01:21:00,14.0,0.0,30.31,WNW,288,6.0,-999.0,54,-99.99,,,-99.99,,2013-02-10 06:21:00,
2013-02-10 01:32:00,14.0,0.0,30.32,NNW,339,3.0,-999.0,53,-99.99,,,-99.99,,2013-02-10 06:32:00,
2013-02-10 01:42:00,14.0,0.0,30.32,NNW,339,3.0,-999.0,53,-99.99,,,-99.99,,2013-02-10 06:42:00,
2013-02-10 01:52:00,14.0,-1.0,30.33,NNE,32,1.0,-999.0,51,-99.99,,,-99.99,,2013-02-10 06:52:00,
2013-02-10 02:01:00,14.0,-1.0,30.33,NNE,16,1.0,-999.0,51,-99.99,,,-99.99,,2013-02-10 07:01:00,
2013-02-10 02:11:00,14.0,-1.0,30.33,NNE,16,1.0,-999.0,51,-99.99,,,-99.99,,2013-02-10 07:11:00,
2013-02-10 02:21:00,14.0,-1.0,30.34,NNE,12,1.0,-999.0,51,-99.99,,,-99.99,,2013-02-10 07:21:00,
2013-02-10 02:32:00,14.0,-1.0,30.34,NNE,25,2.0,-999.0,50,-99.99,,,-99.99,,2013-02-10 07:32:00,
2013-02-10 02:42:00,14.0,-1.0,30.34,NNE,25,2.0,-999.0,50,-99.99,,,-99.99,,2013-02-10 07:42:00,
2013-02-10 02:52:00,14.0,-2.0,30.35,NNE,25,5.0,-999.0,48,-99.99,,,-99.99,,2013-02-10 07:52:00,
2013-02-10 03:01:00,15.0,-2.0,30.34,North,349,4.0,-999.0,46,-99.99,,,-99.99,,2013-02-10 08:01:00,
2013-02-10 03:11:00,15.0,-2.0,30.34,North,349,4.0,-999.0,46,-99.99,,,-99.99,,2013-02-10 08:11:00,
2013-02-10 03:21:00,15.0,-2.0,30.34,NNE,27,6.0,-999.0,46,-99.99,,,-99.99,,2013-02-10 08:21:00,
2013-02-10 03:32:00,14.0,-2.0,30.34,NNW,339,2.0,-999.0,47,-99.99,,,-99.99,,2013-02-10 08:32:00,
2013-02-10 03:43:00,14.0,-2.0,30.34,NNW,339,2.0,-999.0,47,-99.99,,,-99.99,,2013-02-10 08:43:00,
2013-02-10 03:52:00,14.0,-3.0,30.34,NNW,344,3.0,-999.0,46,-99.99,,,-99.99,,2013-02-10 08:52:00,
2013-02-10 04:02:00,14.0,-2.0,30.35,NW,309,1.0,-999.0,48,-99.99,,,-99.99,,2013-02-10 09:02:00,
2013-02-10 04:11:00,14.0,-2.0,30.35,NW,309,1.0,-999.0,48,-99.99,,,-99.99,,2013-02-10 09:11:00,
2013-02-10 04:21:00,13.0,-3.0,30.36,NNW,336,1.0,-999.0,49,-99.99,,,-99.99,,2013-02-10 09:21:00,
2013-02-10 04:32:00,14.0,-2.0,30.36,North,10,3.0,-999.0,47,-99.99,,,-99.99,,2013-02-10 09:32:00,
2013-02-10 04:42:00,14.0,-2.0,30.36,North,10,3.0,-999.0,47,-99.99,,,-99.99,,2013-02-10 09:42:00,
2013-02-10 04:52:00,14.0,-2.0,30.36,NNE,22,4.0,-999.0,47,-99.99,,,-99.99,,2013-02-10 09:52:00,
2013-02-10 05:01:00,13.0,-3.0,30.37,NNW,335,1.0,-999.0,48,-99.99,,,-99.99,,2013-02-10 10:01:00,
2013-02-10 05:11:00,13.0,-3.0,30.37,NW,323,0.0,-999.0,49,-99.99,,,-99.99,,2013-02-10 10:11:00,
2013-02-10 05:21:00,13.0,-3.0,30.37,NW,323,0.0,-999.0,49,-99.99,,,-99.99,,2013-02-10 10:21:00,
2013-02-10 05:31:00,12.0,-3.0,30.38,NNW,335,0.0,-999.0,51,-99.99,,,-99.99,,2013-02-10 10:31:00,
2013-02-10 05:42:00,12.0,-3.0,30.38,NNW,335,0.0,-999.0,51,-99.99,,,-99.99,,2013-02-10 10:42:00,
2013-02-10 05:52:00,12.0,-3.0,30.38,NNW,335,0.0,-999.0,50,-99.99,,,-99.99,,2013-02-10 10:52:00,
2013-02-10 06:01:00,12.0,-3.0,30.39,NNW,334,0.0,-999.0,51,-99.99,,,-99.99,,2013-02-10 11:01:00,
2013-02-10 06:11:00,12.0,-3.0,30.39,NNW,334,0.0,-999.0,51,-99.99,,,-99.99,,2013-02-10 11:11:00,
2013-02-10 06:22:00,11.0,-4.0,30.40,NNW,337,1.0,-999.0,51,-99.99,,,-99.99,,2013-02-10 11:22:00,
2013-02-10 06:32:00,12.0,-3.0,30.40,NW,324,1.0,-999.0,50,-99.99,,,-99.99,,2013-02-10 11:32:00,
2013-02-10 06:42:00,12.0,-3.0,30.40,NW,324,1.0,-999.0,50,-99.99,,,-99.99,,2013-02-10 11:42:00,
2013-02-10 06:52:00,12.0,-3.0,30.41,NNE,13,1.0,-999.0,49,-99.99,,,-99.99,,2013-02-10 11:52:00,
2013-02-10 07:02:00,13.0,-3.0,30.42,NNW,333,2.0,-999.0,47,-99.99,,,-99.99,,2013-02-10 12:02:00,
2013-02-10 07:12:00,13.0,-3.0,30.42,NNW,333,2.0,-999.0,47,-99.99,,,-99.99,,2013-02-10 12:12:00,
2013-02-10 07:21:00,12.0,-4.0,30.42,NNW,329,0.0,-999.0,48,-99.99,,,-99.99,,2013-02-10 12:21:00,
2013-02-10 07:32:00,12.0,-4.0,30.42,NNE,27,0.0,-999.0,47,-99.99,,,-99.99,,2013-02-10 12:32:00,
2013-02-10 07:42:00,12.0,-4.0,30.42,NNE,27,0.0,-999.0,47,-99.99,,,-99.99,,2013-02-10 12:42:00,
2013-02-10 07:52:00,13.0,-3.0,30.44,NNE,24,0.0,-999.0,47,-99.99,,,-99.99,,2013-02-10 12:52:00,
2013-02-10 08:02:00,13.0,-3.0,30.45,NNE,20,0.0,-999.0,48,-99.99,,,-99.99,,2013-02-10 13:02:00,
2013-02-10 08:11:00,13.0,-3.0,30.45,NNE,20,0.0,-999.0,48,-99.99,,,-99.99,,2013-02-10 13:11:00,
2013-02-10 08:21:00,13.0,-3.0,30.45,NE,37,1.0,-999.0,47,-99.99,,,-99.99,,2013-02-10 13:21:00,
2013-02-10 08:31:00,14.0,-4.0,30.45,NE,43,4.0,-999.0,44,-99.99,,,-99.99,,2013-02-10 13:31:00,
2013-02-10 08:41:00,14.0,-4.0,30.45,NE,43,4.0,-999.0,44,-99.99,,,-99.99,,2013-02-10 13:41:00,
2013-02-10 08:52:00,15.0,-3.0,30.46,NNE,29,1.0,-999.0,43,-99.99,,,-99.99,,2013-02-10 13:52:00,
2013-02-10 09:02:00,16.0,-3.0,30.45,NE,46,6.0,-999.0,41,-99.99,,,-99.99,,2013-02-10 14:02:00,
2013-02-10 09:11:00,16.0,-3.0,30.45,NE,46,6.0,-999.0,41,-99.99,,,-99.99,,2013-02-10 14:11:00,
2013-02-10 09:21:00,18.0,-2.0,30.46,North,354,5.0,-999.0,40,-99.99,,,-99.99,,2013-02-10 14:21:00,
2013-02-10 09:32:00,19.0,-3.0,30.46,NE,46,6.0,-999.0,37,-99.99,,,-99.99,,2013-02-10 14:32:00,
2013-02-10 09:41:00,19.0,-3.0,30.46,NE,46,6.0,-999.0,37,-99.99,,,-99.99,,2013-02-10 14:41:00,
2013-02-10 09:52:00,20.0,-3.0,30.47,NNW,344,4.0,-999.0,36,-99.99,,,-99.99,,2013-02-10 14:52:00,
2013-02-10 10:02:00,22.0,-1.0,30.47,North,349,3.0,-999.0,35,-99.99,,,-99.99,,2013-02-10 15:02:00,
2013-02-10 10:11:00,22.0,-1.0,30.47,North,349,3.0,-999.0,35,-99.99,,,-99.99,,2013-02-10 15:11:00,
2013-02-10 10:22:00,24.0,0.0,30.47,North,359,2.0,-999.0,34,-99.99,,,-99.99,,2013-02-10 15:22:00,
2013-02-10 10:32:00,25.0,3.0,30.48,North,8,1.0,-999.0,38,-99.99,,,-99.99,,2013-02-10 15:32:00,
2013-02-10 10:42:00,25.0,3.0,30.48,North,8,1.0,-999.0,38,-99.99,,,-99.99,,2013-02-10 15:42:00,
2013-02-10 10:52:00,27.0,2.0,30.48,North,354,0.0,-999.0,33,-99.99,,,-99.99,,2013-02-10 15:52:00,
2013-02-10 11:02:00,27.0,0.0,30.47,NE,45,3.0,-999.0,31,-99.99,,,-99.99,,2013-02-10 16:02:00,
2013-02-10 11:12:00,27.0,0.0,30.47,NNE,31,5.0,-999.0,30,-99.99,,,-99.99,,2013-02-10 16:12:00,
2013-02-10 11:22:00,27.0,0.0,30.47,NNE,31,5.0,-999.0,30,-99.99,,,-99.99,,2013-02-10 16:22:00,
2013-02-10 11:32:00,29.0,1.0,30.47,NNE,20,2.0,-999.0,30,-99.99,,,-99.99,,2013-02-10 16:32:00,
2013-02-10 11:42:00,31.0,3.0,30.46,NNW,329,1.0,-999.0,30,-99.99,,,-99.99,,2013-02-10 16:42:00,
2013-02-10 11:52:00,31.0,3.0,30.46,NNW,329,1.0,-999.0,30,-99.99,,,-99.99,,2013-02-10 16:52:00,
2013-02-10 12:02:00,33.0,5.0,30.46,WNW,291,1.0,-999.0,30,-99.99,,,-99.99,,2013-02-10 17:02:00,
2013-02-10 12:11:00,33.0,5.0,30.46,WNW,291,1.0,-999.0,30,-99.99,,,-99.99,,2013-02-10 17:11:00,
2013-02-10 12:22:00,33.0,3.0,30.45,NW,310,2.0,-999.0,27,-99.99,,,-99.99,,2013-02-10 17:22:00,
2013-02-10 12:32:00,32.0,-1.0,30.44,NE,41,4.0,-999.0,24,-99.99,,,-99.99,,2013-02-10 17:32:00,
2013-02-10 12:42:00,33.0,3.0,30.43,NE,39,3.0,-999.0,27,-99.99,,,-99.99,,2013-02-10 17:42:00,
2013-02-10 12:52:00,33.0,3.0,30.43,NE,39,3.0,-999.0,27,-99.99,,,-99.99,,2013-02-10 17:52:00,
2013-02-10 13:02:00,33.0,1.0,30.42,NNE,31,2.0,-999.0,25,-99.99,,,-99.99,,2013-02-10 18:02:00,
2013-02-10 13:12:00,33.0,1.0,30.42,NNE,31,2.0,-999.0,25,-99.99,,,-99.99,,2013-02-10 18:12:00,
2013-02-10 13:22:00,33.0,1.0,30.42,NNE,31,2.0,-999.0,25,-99.99,,,-99.99,,2013-02-10 18:22:00,
2013-02-10 13:32:00,37.0,9.0,30.42,NNW,339,0.0,-999.0,31,-99.99,,,-99.99,,2013-02-10 18:32:00,
2013-02-10 13:42:00,37.0,9.0,30.42,NNW,339,0.0,-999.0,31,-99.99,,,-99.99,,2013-02-10 18:42:00,
2013-02-10 13:52:00,38.0,3.0,30.42,NW,305,1.0,-999.0,22,-99.99,,,-99.99,,2013-02-10 18:52:00,
2013-02-10 14:02:00,40.0,5.0,30.41,WNW,301,0.0,-999.0,23,-99.99,,,-99.99,,2013-02-10 19:02:00,
2013-02-10 14:12:00,40.0,3.0,30.40,NW,317,0.0,-999.0,21,-99.99,,,-99.99,,2013-02-10 19:12:00,
2013-02-10 14:22:00,40.0,3.0,30.40,NW,317,0.0,-999.0,21,-99.99,,,-99.99,,2013-02-10 19:22:00,
2013-02-10 14:32:00,40.0,3.0,30.40,NW,317,0.0,-999.0,21,-99.99,,,-99.99,,2013-02-10 19:32:00,
2013-02-10 14:42:00,41.0,1.0,30.40,NW,308,0.0,-999.0,18,-99.99,,,-99.99,,2013-02-10 19:42:00,
2013-02-10 14:52:00,41.0,1.0,30.40,NW,308,0.0,-999.0,18,-99.99,,,-99.99,,2013-02-10 19:52:00,
2013-02-10 15:02:00,40.0,1.0,30.40,West,267,0.0,-999.0,19,-99.99,,,-99.99,,2013-02-10 20:02:00,
2013-02-10 15:11:00,40.0,1.0,30.40,West,267,0.0,-999.0,19,-99.99,,,-99.99,,2013-02-10 20:11:00,
2013-02-10 15:22:00,40.0,3.0,30.42,NW,324,1.0,-999.0,21,-99.99,,,-99.99,,2013-02-10 20:22:00,
2013-02-10 15:32:00,39.0,2.0,30.41,WSW,245,0.0,-999.0,21,-99.99,,,-99.99,,2013-02-10 20:32:00,
2013-02-10 15:42:00,38.0,4.0,30.40,WNW,284,0.0,-999.0,23,-99.99,,,-99.99,,2013-02-10 20:42:00,
2013-02-10 15:52:00,38.0,4.0,30.40,WNW,284,0.0,-999.0,23,-99.99,,,-99.99,,2013-02-10 20:52:00,
2013-02-10 16:02:00,38.0,4.0,30.39,West,268,0.0,-999.0,24,-99.99,,,-99.99,,2013-02-10 21:02:00,
2013-02-10 16:11:00,38.0,4.0,30.39,West,268,0.0,-999.0,24,-99.99,,,-99.99,,2013-02-10 21:11:00,
2013-02-10 16:22:00,37.0,2.0,30.38,West,276,0.0,-999.0,22,-99.99,,,-99.99,,2013-02-10 21:22:00,
2013-02-10 16:32:00,36.0,3.0,30.38,West,276,0.0,-999.0,24,-99.99,,,-99.99,,2013-02-10 21:32:00,
2013-02-10 16:42:00,35.0,3.0,30.39,West,275,0.0,-999.0,25,-99.99,,,-99.99,,2013-02-10 21:42:00,
2013-02-10 16:52:00,35.0,3.0,30.39,West,275,0.0,-999.0,25,-99.99,,,-99.99,,2013-02-10 21:52:00,
2013-02-10 17:02:00,35.0,3.0,30.39,West,274,0.0,-999.0,25,-99.99,,,-99.99,,2013-02-10 22:02:00,
2013-02-10 17:11:00,35.0,3.0,30.39,West,274,0.0,-999.0,25,-99.99,,,-99.99,,2013-02-10 22:11:00,
2013-02-10 17:22:00,35.0,3.0,30.39,West,274,0.0,-999.0,25,-99.99,,,-99.99,,2013-02-10 22:22:00,
2013-02-10 17:32:00,32.0,-2.0,30.39,West,274,0.0,-999.0,23,-99.99,,,-99.99,,2013-02-10 22:32:00,
2013-02-10 17:42:00,32.0,-2.0,30.39,West,274,0.0,-999.0,22,-99.99,,,-99.99,,2013-02-10 22:42:00,
2013-02-10 17:53:00,32.0,-2.0,30.39,West,274,0.0,-999.0,22,-99.99,,,-99.99,,2013-02-10 22:53:00,
2013-02-10 18:02:00,31.0,1.0,30.39,West,274,0.0,-999.0,27,-99.99,,,-99.99,,2013-02-10 23:02:00,
2013-02-10 18:12:00,31.0,1.0,30.39,West,274,0.0,-999.0,27,-99.99,,,-99.99,,2013-02-10 23:12:00,
2013-02-10 18:22:00,31.0,-1.0,30.39,West,274,0.0,-999.0,25,-99.99,,,-99.99,,2013-02-10 23:22:00,
2013-02-10 18:32:00,30.0,2.0,30.39,West,274,0.0,-999.0,29,-99.99,,,-99.99,,2013-02-10 23:32:00,
2013-02-10 18:42:00,30.0,2.0,30.39,West,274,0.0,-999.0,29,-99.99,,,-99.99,,2013-02-10 23:42:00,
2013-02-10 18:52:00,30.0,2.0,30.39,West,274,0.0,-999.0,29,-99.99,,,-99.99,,2013-02-10 23:52:00,
2013-02-10 19:02:00,30.0,-1.0,30.40,West,274,0.0,-999.0,26,-99.99,,,-99.99,,2013-02-11 00:02:00,
2013-02-10 19:11:00,30.0,-2.0,30.39,West,274,0.0,-999.0,24,-99.99,,,-99.99,,2013-02-11 00:11:00,
2013-02-10 19:22:00,30.0,-2.0,30.39,West,274,0.0,-999.0,24,-99.99,,,-99.99,,2013-02-11 00:22:00,
2013-02-10 19:32:00,29.0,-2.0,30.40,West,274,0.0,-999.0,26,-99.99,,,-99.99,,2013-02-11 00:32:00,
2013-02-10 19:42:00,28.0,2.0,30.39,West,274,0.0,-999.0,32,-99.99,,,-99.99,,2013-02-11 00:42:00,
2013-02-10 19:52:00,28.0,2.0,30.39,West,274,0.0,-999.0,32,-99.99,,,-99.99,,2013-02-11 00:52:00,
2013-02-10 20:01:00,26.0,7.0,30.40,West,274,1.0,-999.0,43,-99.99,,,-99.99,,2013-02-11 01:01:00,
2013-02-10 20:11:00,26.0,7.0,30.40,West,274,1.0,-999.0,43,-99.99,,,-99.99,,2013-02-11 01:11:00,
2013-02-10 20:21:00,26.0,11.0,30.40,West,274,1.0,-999.0,52,-99.99,,,-99.99,,2013-02-11 01:21:00,
2013-02-10 20:32:00,25.0,12.0,30.40,West,274,0.0,-999.0,56,-99.99,,,-99.99,,2013-02-11 01:32:00,
2013-02-10 20:42:00,26.0,12.0,30.40,SSW,202,0.0,-999.0,56,-99.99,,,-99.99,,2013-02-11 01:42:00,
2013-02-10 20:52:00,26.0,12.0,30.40,SSW,202,0.0,-999.0,56,-99.99,,,-99.99,,2013-02-11 01:52:00,
2013-02-10 21:01:00,25.0,11.0,30.40,SSW,202,0.0,-999.0,54,-99.99,,,-99.99,,2013-02-11 02:01:00,
2013-02-10 21:11:00,25.0,11.0,30.40,SSW,202,0.0,-999.0,54,-99.99,,,-99.99,,2013-02-11 02:11:00,
2013-02-10 21:21:00,25.0,11.0,30.39,SSW,202,0.0,-999.0,54,-99.99,,,-99.99,,2013-02-11 02:21:00,
2013-02-10 21:32:00,24.0,11.0,30.38,SSW,202,0.0,-999.0,56,-99.99,,,-99.99,,2013-02-11 02:32:00,
2013-02-10 21:42:00,24.0,11.0,30.37,SSW,202,0.0,-999.0,58,-99.99,,,-99.99,,2013-02-11 02:42:00,
2013-02-10 21:52:00,24.0,11.0,30.37,SSW,202,0.0,-999.0,58,-99.99,,,-99.99,,2013-02-11 02:52:00,
2013-02-10 22:02:00,23.0,11.0,30.37,SSW,202,0.0,-999.0,59,-99.99,,,-99.99,,2013-02-11 03:02:00,
2013-02-10 22:11:00,23.0,11.0,30.37,SSW,202,0.0,-999.0,59,-99.99,,,-99.99,,2013-02-11 03:11:00,
2013-02-10 22:21:00,24.0,12.0,30.38,SSW,202,0.0,-999.0,59,-99.99,,,-99.99,,2013-02-11 03:21:00,
2013-02-10 22:32:00,24.0,12.0,30.38,SSW,202,0.0,-999.0,59,-99.99,,,-99.99,,2013-02-11 03:32:00,
2013-02-10 22:42:00,24.0,11.0,30.38,SSW,202,0.0,-999.0,58,-99.99,,,-99.99,,2013-02-11 03:42:00,
2013-02-10 22:52:00,24.0,11.0,30.38,SSW,202,0.0,-999.0,58,-99.99,,,-99.99,,2013-02-11 03:52:00,
2013-02-10 23:01:00,24.0,11.0,30.37,SSW,202,0.0,-999.0,57,-99.99,,,-99.99,,2013-02-11 04:01:00,
2013-02-10 23:11:00,24.0,11.0,30.37,SSW,202,0.0,-999.0,57,-99.99,,,-99.99,,2013-02-11 04:11:00,
2013-02-10 23:22:00,23.0,10.0,30.37,SSW,202,0.0,-999.0,58,-99.99,,,-99.99,,2013-02-11 04:22:00,
2013-02-10 23:32:00,23.0,12.0,30.35,SSW,202,0.0,-999.0,61,-99.99,,,-99.99,,2013-02-11 04:32:00,
2013-02-10 23:42:00,22.0,11.0,30.36,SSW,202,0.0,-999.0,63,-99.99,,,-99.99,,2013-02-11 04:42:00,
2013-02-10 23:52:00,22.0,11.0,30.36,SSW,202,0.0,-999.0,63,-99.99,,,-99.99,,2013-02-11 04:52:00,